KINT/INT METAR and TAF weather

Enter ICAO airport designator
Station Type Date Time Source
KINT METAR 2019/02/18 04:05 UTC NOAA

KINT 180405Z AUTO 32004KT 1 1/4SM +RA BR BKN005 BKN010 OVC018 03/02 A2993 RMK AO2 P0008 T00280022


Station Type Date Time Source
KINT Decoded METAR 2019/02/18 04:05 UTC NOAA

WINSTON SALEM SMITH REYNOLDS, NC, United States (KINT) 36-08N 80-14W 291M
Feb 17, 2019 - 11:05 PM EST / 2019.02.18 0405 UTC
Wind: from the NW (320 degrees) at 5 MPH (4 KT):0
Visibility: 1 1/4 mile(s):0
Sky conditions: overcast
Weather: heavy rain; mist
Precipitation last hour: 0.08 inches
Temperature: 37.0 F (2.8 C)
Dew Point: 36.0 F (2.2 C)
Relative Humidity: 95%
Pressure (altimeter): 29.93 in. Hg (1013 hPa)
ob: KINT 180405Z AUTO 32004KT 1 1/4SM +RA BR BKN005 BKN010 OVC018 03/02 A2993 RMK AO2 P0008 T00280022
cycle: 4

Station Type Date Time Source
KINT TAF 2019/02/18 04:48 UTC NOAA

TAF
AMD KINT 180347Z 1804/1824 VRB03KT 2SM RA BKN005 OVC012
TEMPO 1804/1807 1 1/2SM +RA
FM181100 26005KT 6SM BR BKN005 BKN200
FM181400 29011KT P6SM BKN200
TEMPO 1815/1819 29013G21KT


Example: see airport list